createdAt,value
2019-04-29T00:04:05.737Z,97459.22
2019-04-29T00:09:13.808Z,97462.41
2019-04-29T00:14:17.435Z,97456.84
2019-04-29T00:19:38.556Z,97457.02
2019-04-29T00:24:42.110Z,97463.34
2019-04-29T00:29:45.496Z,97456.73
2019-04-29T00:34:48.884Z,97457.55
2019-04-29T00:40:09.743Z,97458.20
2019-04-29T00:45:14.337Z,97460.78
2019-04-29T00:50:17.722Z,97456.52
2019-04-29T00:55:22.744Z,97463.08
2019-04-29T01:00:36.575Z,97463.96
2019-04-29T01:05:39.959Z,97459.56
2019-04-29T01:10:43.347Z,97469.27
2019-04-29T01:15:46.734Z,97468.69
2019-04-29T01:20:50.191Z,97471.30
2019-04-29T01:25:55.210Z,97465.97
2019-04-29T01:31:09.992Z,97467.19
2019-04-29T01:36:17.730Z,97468.23
2019-04-29T01:41:25.784Z,97470.25
2019-04-29T01:46:29.713Z,97462.42
2019-04-29T01:51:33.112Z,97477.27
2019-04-29T01:56:36.487Z,97471.64
2019-04-29T02:01:39.877Z,97471.92
2019-04-29T02:06:43.265Z,97474.93
2019-04-29T02:11:46.654Z,97477.94
2019-04-29T02:16:50.042Z,97470.62
2019-04-29T02:22:12.898Z,97462.52
2019-04-29T02:27:16.288Z,97454.41
2019-04-29T02:32:19.673Z,97459.27
2019-04-29T02:37:24.937Z,97457.39
2019-04-29T02:42:46.009Z,97455.66
2019-04-29T02:47:49.404Z,97451.82
2019-04-29T02:52:53.030Z,97449.33
2019-04-29T02:57:58.057Z,97443.54
2019-04-29T03:03:08.730Z,97443.54
2019-04-29T03:08:12.439Z,97441.77
2019-04-29T03:13:15.901Z,97444.14
2019-04-29T03:18:20.765Z,97445.72
2019-04-29T03:23:26.004Z,97446.00
2019-04-29T03:28:29.459Z,97442.45
2019-04-29T03:33:32.927Z,97440.56
2019-04-29T03:38:36.306Z,97435.16
2019-04-29T03:43:39.712Z,97433.80
2019-04-29T03:48:43.089Z,97437.37
2019-04-29T03:53:46.478Z,97429.12
2019-04-29T03:58:49.866Z,97434.89
2019-04-29T04:04:03.562Z,97443.42
2019-04-29T04:09:08.660Z,97443.20
2019-04-29T04:14:12.047Z,97445.30
2019-04-29T04:19:15.506Z,97446.41
2019-04-29T04:24:18.901Z,97451.58
2019-04-29T04:29:22.296Z,97455.61
2019-04-29T04:34:25.681Z,97450.16
2019-04-29T04:39:30.952Z,97459.94
2019-04-29T04:44:49.239Z,97456.95
2019-04-29T04:49:52.666Z,97465.00
2019-04-29T04:54:56.074Z,97472.70
2019-04-29T04:59:59.447Z,97467.23
2019-04-29T05:05:02.836Z,97472.20
2019-04-29T05:10:06.289Z,97470.84
2019-04-29T05:15:09.823Z,97468.25
2019-04-29T05:20:13.354Z,97473.00
2019-04-29T05:25:16.984Z,97475.63
2019-04-29T05:30:20.618Z,97480.38
2019-04-29T05:35:40.219Z,97485.71
2019-04-29T05:40:50.100Z,97480.36
2019-04-29T05:46:07.160Z,97482.34
2019-04-29T05:51:27.283Z,97480.23
2019-04-29T05:56:31.751Z,97484.20
2019-04-29T06:01:35.140Z,97483.22
2019-04-29T06:06:38.540Z,97489.20
2019-04-29T06:11:41.939Z,97488.56
2019-04-29T06:16:45.330Z,97492.16
2019-04-29T06:21:48.726Z,97498.16
2019-04-29T06:26:52.362Z,97505.48
2019-04-29T06:31:55.992Z,97503.29
2019-04-29T06:36:59.380Z,97495.55
2019-04-29T06:42:02.769Z,97502.01
2019-04-29T06:47:06.166Z,97501.84
2019-04-29T06:52:09.560Z,97502.33
2019-04-29T06:57:12.955Z,97505.89
2019-04-29T07:02:16.600Z,97497.23
2019-04-29T07:07:19.996Z,97494.45
2019-04-29T07:12:23.394Z,97496.14
2019-04-29T07:17:26.792Z,97496.01
2019-04-29T07:22:31.198Z,97497.50
2019-04-29T07:27:42.798Z,97499.89
2019-04-29T07:32:42.109Z,97500.28
2019-04-29T07:37:44.907Z,97499.22
2019-04-29T07:42:48.540Z,97502.77
2019-04-29T07:47:56.615Z,97504.05
2019-04-29T07:52:58.623Z,97498.99
2019-04-29T07:58:02.022Z,97502.80
2019-04-29T08:03:07.662Z,97506.25
2019-04-29T08:08:11.336Z,97508.52
2019-04-29T08:13:15.167Z,97509.20
2019-04-29T08:18:18.799Z,97502.41
2019-04-29T08:23:22.194Z,97514.75
2019-04-29T08:28:25.596Z,97508.20
2019-04-29T08:33:28.989Z,97504.35
2019-04-29T08:38:32.388Z,97507.72
2019-04-29T08:43:57.823Z,97499.52
2019-04-29T08:49:01.033Z,97498.36
2019-04-29T08:54:03.886Z,97506.98
2019-04-29T08:59:07.282Z,97502.30
2019-04-29T09:04:10.684Z,97501.75
2019-04-29T09:09:28.844Z,97497.14
2019-04-29T09:14:19.430Z,97497.09
2019-04-29T09:19:22.826Z,97497.64
2019-04-29T09:24:26.225Z,97490.84
2019-04-29T09:29:38.937Z,97498.50
2019-04-29T09:34:42.331Z,97481.47
2019-04-29T09:39:47.199Z,97495.71
2019-04-29T09:45:08.068Z,97493.81
2019-04-29T09:50:11.700Z,97485.80
2019-04-29T09:55:19.906Z,97481.70
2019-04-29T10:00:40.817Z,97474.88
2019-04-29T10:05:52.793Z,97472.17
2019-04-29T10:10:57.623Z,97472.99
2019-04-29T10:16:07.726Z,97467.23
2019-04-29T10:21:16.722Z,97453.48
2019-04-29T10:26:17.939Z,97459.53
2019-04-29T10:31:22.938Z,97460.91
2019-04-29T10:36:26.568Z,97450.19
2019-04-29T10:41:36.054Z,97447.98
2019-04-29T10:46:50.084Z,97453.75
2019-04-29T10:51:57.952Z,97444.97
2019-04-29T10:56:59.343Z,97445.23
2019-04-29T11:02:14.314Z,97435.04
2019-04-29T11:07:26.327Z,97448.80
2019-04-29T11:12:24.947Z,97444.67
2019-04-29T11:17:28.811Z,97439.17
2019-04-29T11:22:38.233Z,97442.41
2019-04-29T11:27:40.661Z,97427.83
2019-04-29T11:32:51.568Z,97430.64
2019-04-29T11:37:59.656Z,97426.52
2019-04-29T11:43:00.139Z,97421.02
2019-04-29T11:48:03.772Z,97433.58
2019-04-29T11:53:08.736Z,97430.88
2019-04-29T11:58:19.507Z,97428.95
2019-04-29T12:03:29.970Z,97426.01
2019-04-29T12:08:33.367Z,97431.49
2019-04-29T12:13:50.267Z,97423.87
2019-04-29T12:18:58.210Z,97415.22
2019-04-29T12:24:01.882Z,97412.47
2019-04-29T12:29:05.333Z,97423.06
2019-04-29T12:34:19.487Z,97416.86
2019-04-29T12:39:44.958Z,97405.32
2019-04-29T12:44:50.767Z,97411.97
2019-04-29T12:49:54.168Z,97403.03
2019-04-29T12:55:01.727Z,97398.98
2019-04-29T13:00:07.702Z,97407.52
2019-04-29T13:05:10.159Z,97392.19
2019-04-29T13:10:21.139Z,97380.92
2019-04-29T13:15:48.442Z,97378.20
2019-04-29T13:20:52.124Z,97387.63
2019-04-29T13:25:55.877Z,97396.13
2019-04-29T13:30:59.374Z,97389.42
2019-04-29T13:36:02.826Z,97395.36
2019-04-29T13:41:13.635Z,97394.50
2019-04-29T13:46:15.836Z,97389.48
2019-04-29T13:51:35.343Z,97383.75
2019-04-29T13:56:34.955Z,97367.00
2019-04-29T14:01:33.668Z,97368.75
2019-04-29T14:06:39.629Z,97364.12
2019-04-29T14:11:43.020Z,97368.80
2019-04-29T14:16:47.540Z,97359.81
2019-04-29T14:21:51.775Z,97350.80
2019-04-29T14:26:55.238Z,97346.70
2019-04-29T14:32:01.347Z,97340.42
2019-04-29T14:37:19.660Z,97349.91
2019-04-29T14:42:20.768Z,97349.06
2019-04-29T14:47:25.893Z,97338.74
2019-04-29T14:52:29.211Z,97340.34
2019-04-29T14:57:32.610Z,97341.75
2019-04-29T15:02:36.276Z,97343.59
2019-04-29T15:07:39.706Z,97344.12
2019-04-29T15:12:51.758Z,97346.28
2019-04-29T15:17:51.495Z,97346.23
2019-04-29T15:22:55.275Z,97344.08
2019-04-29T15:27:58.664Z,97340.50
2019-04-29T15:33:02.087Z,97350.59
2019-04-29T15:38:05.497Z,97349.75
2019-04-29T15:43:09.232Z,97350.26
2019-04-29T15:48:12.805Z,97360.25
2019-04-29T15:53:16.207Z,97368.62
2019-04-29T15:58:22.575Z,97361.37
2019-04-29T16:03:24.761Z,97359.09
2019-04-29T16:08:32.722Z,97356.83
2019-04-29T16:13:36.191Z,97362.81
2019-04-29T16:18:39.772Z,97357.13
2019-04-29T16:23:43.403Z,97356.13
2019-04-29T16:28:46.804Z,97356.40
2019-04-29T16:33:54.608Z,97361.05
2019-04-29T16:38:55.317Z,97363.97
2019-04-29T16:43:59.028Z,97372.56
2019-04-29T16:49:02.490Z,97366.20
2019-04-29T16:54:05.881Z,97379.14
2019-04-29T16:59:09.688Z,97372.41
2019-04-29T17:04:13.118Z,97367.12
2019-04-29T17:09:23.051Z,97363.45
2019-04-29T17:14:23.599Z,97359.68
2019-04-29T17:19:26.935Z,97364.07
2019-04-29T17:24:30.337Z,97362.92
2019-04-29T17:29:55.549Z,97364.14
2019-04-29T17:35:00.057Z,97363.69
2019-04-29T17:40:05.399Z,97369.91
2019-04-29T17:45:12.255Z,97366.62
2019-04-29T17:50:30.427Z,97362.73
2019-04-29T17:55:38.750Z,97363.77
2019-04-29T18:00:59.425Z,97361.73
2019-04-29T18:06:10.734Z,97359.84
2019-04-29T18:11:15.006Z,97360.58
2019-04-29T18:16:26.061Z,97365.04
2019-04-29T18:21:27.077Z,97369.16
2019-04-29T18:26:32.110Z,97374.62
2019-04-29T18:31:35.806Z,97375.69
2019-04-29T18:36:39.193Z,97369.16
2019-04-29T18:41:42.581Z,97370.02
2019-04-29T18:46:53.396Z,97384.05
2019-04-29T18:51:51.105Z,97385.14
2019-04-29T18:56:55.908Z,97372.95
2019-04-29T19:02:01.015Z,97384.98
2019-04-29T19:07:05.426Z,97384.43
2019-04-29T19:12:09.026Z,97383.06
2019-04-29T19:17:12.666Z,97380.69
2019-04-29T19:22:16.191Z,97375.51
2019-04-29T19:27:19.591Z,97375.93
2019-04-29T19:32:24.676Z,97368.41
2019-04-29T19:37:32.230Z,97379.83
2019-04-29T19:42:35.922Z,97375.23
2019-04-29T19:47:38.545Z,97379.87
2019-04-29T19:52:41.938Z,97385.64
2019-04-29T19:57:47.988Z,97375.28
2019-04-29T20:02:51.206Z,97387.79
2019-04-29T20:07:58.341Z,97375.00
2019-04-29T20:13:00.348Z,97364.59
2019-04-29T20:18:26.094Z,97365.95
2019-04-29T20:23:28.076Z,97361.27
2019-04-29T20:28:31.653Z,97362.36
2019-04-29T20:33:35.286Z,97356.91
2019-04-29T20:38:39.303Z,97346.31
2019-04-29T20:43:42.934Z,97343.38
2019-04-29T20:48:50.450Z,97344.95
2019-04-29T20:54:09.112Z,97339.90
2019-04-29T20:59:15.322Z,97333.53
2019-04-29T21:04:30.992Z,97340.33
2019-04-29T21:09:27.471Z,97338.98
2019-04-29T21:14:33.956Z,97340.91
2019-04-29T21:19:36.171Z,97332.39
2019-04-29T21:24:39.571Z,97332.97
2019-04-29T21:29:42.966Z,97339.04
2019-04-29T21:34:51.070Z,97329.44
2019-04-29T21:40:07.138Z,97332.14
2019-04-29T21:45:12.051Z,97332.14
2019-04-29T21:50:17.030Z,97337.02
2019-04-29T21:55:25.142Z,97332.39
2019-04-29T22:00:26.024Z,97330.50
2019-04-29T22:05:29.428Z,97324.48
2019-04-29T22:10:35.024Z,97320.01
2019-04-29T22:15:42.318Z,97321.85
2019-04-29T22:20:44.461Z,97323.85
2019-04-29T22:25:47.864Z,97320.09
2019-04-29T22:30:54.788Z,97317.86
2019-04-29T22:35:56.375Z,97316.19
2019-04-29T22:41:01.409Z,97323.88
2019-04-29T22:46:09.279Z,97320.52
2019-04-29T22:51:13.925Z,97313.21
2019-04-29T22:56:15.990Z,97311.59
2019-04-29T23:01:19.392Z,97299.90
2019-04-29T23:06:23.031Z,97305.63
2019-04-29T23:11:26.432Z,97306.45
2019-04-29T23:16:31.553Z,97301.77
2019-04-29T23:21:47.251Z,97297.45
2019-04-29T23:26:50.683Z,97297.70
2019-04-29T23:31:55.388Z,97291.53
2019-04-29T23:36:58.865Z,97289.06
2019-04-29T23:42:06.423Z,97285.52
2019-04-29T23:47:10.255Z,97273.47
2019-04-29T23:52:13.460Z,97270.81
2019-04-29T23:57:23.547Z,97266.48
